Time;durP1;ratioP1;P1;durP2;ratioP2;P2;SDS_P1;SDS_P2;PMS_P1;PMS_P2;Temp;Humidity;BMP_temperature;BMP_pressure;BME280_temperature;BME280_humidity;BME280_pressure;Samples;Min_cycle;Max_cycle;Signal;HPM_P1;HPM_P2
2024/02/07 06:53:52;;;;;;;;;;;;;;;5.22;100.00;97830.70;1809441;77;20183;-73
2024/02/07 06:56:21;;;;;;;;;;;;;;;5.27;100.00;97832.97;1820821;77;20120;-70
2024/02/07 06:58:48;;;;;;;;;;;;;;;5.32;100.00;97823.16;1794853;76;20390;-71
2024/02/07 07:01:29;;;;;;;;;;;;;;;5.34;100.00;97828.57;1834991;77;20506;-72
2024/02/07 07:03:57;;;;;;;;;;;;;;;5.33;100.00;97823.05;1850799;76;20111;-72
2024/02/07 07:06:30;;;;;;;;;;;;;;;5.35;100.00;97823.77;1841100;77;20381;-75
2024/02/07 07:08:59;;;;;;;;;;;;;;;5.40;100.00;97827.78;1828858;77;20143;-72
2024/02/07 07:11:31;;;;;;;;;;;;;;;5.40;100.00;97823.45;1838197;77;20193;-72
2024/02/07 07:14:01;;;;;;;;;;;;;;;5.43;100.00;97816.78;1841137;77;20116;-74
2024/02/07 07:16:28;;;;;;;;;;;;;;;5.48;100.00;97817.75;1838091;77;20097;-73
2024/02/07 07:19:18;;;;;;;;;;;;;;;5.52;100.00;97824.34;1828703;77;20135;-76
2024/02/07 07:21:55;;;;;;;;;;;;;;;5.54;100.00;97815.56;1852873;77;20092;-73
2024/02/07 07:24:23;;;;;;;;;;;;;;;5.56;100.00;97812.41;1853638;76;20096;-74
2024/02/07 07:26:56;;;;;;;;;;;;;;;5.59;100.00;97807.03;1845168;78;20080;-76
2024/02/07 07:29:24;;;;;;;;;;;;;;;5.60;100.00;97797.03;1840423;76;21250;-72
2024/02/07 07:32:00;;;;;;;;;;;;;;;5.67;100.00;97797.42;1835056;76;20123;-72
2024/02/07 07:34:29;;;;;;;;;;;;;;;5.70;100.00;97794.62;1827888;77;20132;-70
2024/02/07 07:47:45;;;;;;;;;;;;;;;6.02;100.00;97793.59;1828611;76;20195;-71
2024/02/07 07:50:12;;;;;;;;;;;;;;;6.09;100.00;97789.63;1848460;77;20127;-74
2024/02/07 07:52:38;;;;;;;;;;;;;;;6.15;100.00;97784.48;1829950;77;20108;-75
2024/02/07 07:55:05;;;;;;;;;;;;;;;6.19;100.00;97785.44;1850811;76;20088;-70
2024/02/07 07:57:32;;;;;;;;;;;;;;;6.21;100.00;97786.14;1843663;77;20143;-70
2024/02/07 07:59:58;;;;;;;;;;;;;;;6.22;100.00;97785.21;1832303;76;20167;-70
2024/02/07 08:02:26;;;;;;;;;;;;;;;6.23;100.00;97782.16;1849818;77;20234;-72
2024/02/07 08:04:52;;;;;;;;;;;;;;;6.24;100.00;97785.09;1820035;77;20104;-72
2024/02/07 08:07:19;;;;;;;;;;;;;;;6.30;100.00;97783.35;1849400;76;20411;-74
2024/02/07 08:09:45;;;;;;;;;;;;;;;6.36;100.00;97779.02;1844372;76;20089;-72
2024/02/07 08:12:15;;;;;;;;;;;;;;;6.40;100.00;97777.83;1884915;76;20160;-72
2024/02/07 08:14:41;;;;;;;;;;;;;;;6.46;100.00;97767.03;1846897;75;20407;-70
2024/02/07 08:17:09;;;;;;;;;;;;;;;6.49;100.00;97762.92;1844877;76;20113;-70
2024/02/07 08:19:36;;;;;;;;;;;;;;;6.53;100.00;97764.34;1856640;75;20121;-70
2024/02/07 08:22:03;;;;;;;;;;;;;;;6.55;100.00;97763.75;1845818;77;20089;-70
2024/02/07 08:24:30;;;;;;;;;;;;;;;6.58;100.00;97762.23;1841871;76;20131;-72
2024/02/07 08:26:57;;;;;;;;;;;;;;;6.61;100.00;97760.70;1853018;77;20221;-71
2024/02/07 08:32:50;;;;;;;;;;;;;;;6.67;100.00;97745.20;1797330;78;20166;-72
2024/02/07 08:35:27;;;;;;;;;;;;;;;6.73;100.00;97745.20;1744062;79;20156;-68
2024/02/07 08:37:59;;;;;;;;;;;;;;;6.76;100.00;97744.50;1858591;77;20140;-71
2024/02/07 08:40:31;;;;;;;;;;;;;;;6.78;100.00;97743.91;1835770;77;20155;-76
2024/02/07 08:43:09;;;;;;;;;;;;;;;6.80;100.00;97743.79;1837181;77;20100;-71
2024/02/07 08:45:44;;;;;;;;;;;;;;;6.82;100.00;97736.70;1859198;76;20144;-72
2024/02/07 08:48:19;;;;;;;;;;;;;;;6.87;100.00;97738.47;1827129;75;20114;-70
2024/02/07 08:50:53;;;;;;;;;;;;;;;6.89;100.00;97728.36;1856045;76;20379;-73
2024/02/07 09:07:54;;;;;;;;;;;;;;;7.17;100.00;97705.50;1775206;79;20162;-73
2024/02/07 09:10:25;;;;;;;;;;;;;;;7.17;100.00;97702.92;1773143;79;20443;-71
2024/02/07 09:13:00;;;;;;;;;;;;;;;7.17;100.00;97699.86;1777018;79;20171;-72
2024/02/07 09:15:26;;;;;;;;;;;;;;;7.20;100.00;97684.53;1799448;79;20132;-70
2024/02/07 09:17:52;;;;;;;;;;;;;;;7.20;100.00;97682.77;1763910;79;20103;-70
2024/02/07 09:20:18;;;;;;;;;;;;;;;7.24;100.00;97675.58;1796098;79;20090;-72
2024/02/07 09:22:44;;;;;;;;;;;;;;;7.28;100.00;97678.27;1804266;79;20138;-72
2024/02/07 09:25:12;;;;;;;;;;;;;;;7.35;100.00;97670.37;1846207;76;20236;-71
2024/02/07 09:27:44;;;;;;;;;;;;;;;7.42;100.00;97669.41;1861705;75;20099;-72
2024/02/07 09:30:11;;;;;;;;;;;;;;;7.50;100.00;97669.14;1850413;77;20125;-70
2024/02/07 09:32:43;;;;;;;;;;;;;;;7.61;100.00;97671.66;1850639;77;20098;-73
2024/02/07 09:35:10;;;;;;;;;;;;;;;7.72;100.00;97665.59;1847492;76;20156;-71
2024/02/07 09:37:37;;;;;;;;;;;;;;;7.83;100.00;97652.59;1839733;76;20107;-74
2024/02/07 09:40:05;;;;;;;;;;;;;;;7.88;100.00;97649.62;1829551;76;20162;-73
2024/02/07 09:42:38;;;;;;;;;;;;;;;7.92;100.00;97658.31;1837780;77;20138;-73
2024/02/07 09:45:07;;;;;;;;;;;;;;;7.95;100.00;97644.28;1854028;76;20123;-72
2024/02/07 09:47:37;;;;;;;;;;;;;;;7.95;100.00;97652.87;1846888;76;20164;-73
2024/02/07 09:50:06;;;;;;;;;;;;;;;7.99;100.00;97658.16;1831516;77;20112;-71
2024/02/07 09:52:32;;;;;;;;;;;;;;;8.03;100.00;97645.26;1829754;77;20100;-72
2024/02/07 09:55:04;;;;;;;;;;;;;;;8.08;100.00;97644.88;1862533;76;20403;-72
2024/02/07 09:57:30;;;;;;;;;;;;;;;8.10;100.00;97647.34;1836789;77;20101;-71
2024/02/07 09:59:56;;;;;;;;;;;;;;;8.11;100.00;97643.80;1826917;77;20112;-72
2024/02/07 10:02:23;;;;;;;;;;;;;;;8.11;100.00;97640.73;1823590;77;20127;-72
2024/02/07 10:04:57;;;;;;;;;;;;;;;8.12;100.00;97632.00;1835163;77;20087;-73
2024/02/07 10:07:29;;;;;;;;;;;;;;;8.16;100.00;97626.09;1805223;77;20191;-71
2024/02/07 10:09:57;;;;;;;;;;;;;;;8.18;100.00;97620.30;1830425;77;20156;-74
2024/02/07 10:12:28;;;;;;;;;;;;;;;8.21;100.00;97626.05;1828281;77;20093;-70
2024/02/07 10:14:56;;;;;;;;;;;;;;;8.22;100.00;97616.50;1834114;77;20178;-70
2024/02/07 10:17:22;;;;;;;;;;;;;;;8.23;100.00;97616.37;1836823;77;20147;-70
2024/02/07 10:19:56;;;;;;;;;;;;;;;8.25;100.00;97613.17;1831270;77;20468;-72
2024/02/07 10:22:43;;;;;;;;;;;;;;;8.30;100.00;97616.67;1729228;81;20106;-71
2024/02/07 10:25:16;;;;;;;;;;;;;;;8.36;100.00;97623.97;1791149;79;20129;-73
2024/02/07 10:27:43;;;;;;;;;;;;;;;8.41;100.00;97626.14;1834934;77;20142;-72
2024/02/07 10:30:10;;;;;;;;;;;;;;;8.44;100.00;97612.44;1834655;77;20154;-72
2024/02/07 10:32:38;;;;;;;;;;;;;;;8.47;100.00;97613.47;1808913;77;20159;-72
2024/02/07 10:35:10;;;;;;;;;;;;;;;8.50;100.00;97618.40;1782389;79;20165;-72
2024/02/07 10:37:41;;;;;;;;;;;;;;;8.53;100.00;97619.43;1816707;77;20121;-71
2024/02/07 10:40:15;;;;;;;;;;;;;;;8.55;100.00;97616.70;1824600;77;20113;-73
2024/02/07 10:42:55;;;;;;;;;;;;;;;8.54;100.00;97613.30;1807434;78;20094;-72
2024/02/07 10:45:21;;;;;;;;;;;;;;;8.52;100.00;97619.56;1816840;77;20110;-71
2024/02/07 10:47:52;;;;;;;;;;;;;;;8.50;100.00;97614.98;1826154;76;20129;-71
2024/02/07 10:50:19;;;;;;;;;;;;;;;8.47;100.00;97610.88;1855446;75;20136;-69
2024/02/07 10:52:50;;;;;;;;;;;;;;;8.46;100.00;97610.53;1828885;76;20093;-73
2024/02/07 10:58:09;;;;;;;;;;;;;;;8.49;100.00;97612.86;1853062;75;20105;-70
2024/02/07 11:00:39;;;;;;;;;;;;;;;8.52;100.00;97607.41;1855572;76;20387;-70
2024/02/07 11:03:09;;;;;;;;;;;;;;;8.56;100.00;97610.09;1838445;76;20425;-71
2024/02/07 11:05:40;;;;;;;;;;;;;;;8.60;100.00;97603.69;1843713;76;20125;-73
2024/02/07 11:08:09;;;;;;;;;;;;;;;8.64;100.00;97606.36;1836177;77;20123;-74
2024/02/07 11:10:35;;;;;;;;;;;;;;;8.65;100.00;97604.11;1846163;77;20119;-72
2024/02/07 11:13:03;;;;;;;;;;;;;;;8.68;100.00;97599.13;1840233;77;20139;-73
2024/02/07 11:15:30;;;;;;;;;;;;;;;8.69;100.00;97600.30;1832123;75;20109;-73
2024/02/07 11:17:56;;;;;;;;;;;;;;;8.73;100.00;97607.81;1847720;75;20127;-74
2024/02/07 11:20:23;;;;;;;;;;;;;;;8.76;100.00;97593.28;1832226;76;20416;-73
2024/02/07 11:22:49;;;;;;;;;;;;;;;8.80;100.00;97598.05;1844250;76;20390;-74
2024/02/07 11:25:18;;;;;;;;;;;;;;;8.83;100.00;97591.77;1846273;75;20156;-73
2024/02/07 11:27:44;;;;;;;;;;;;;;;8.85;100.00;97590.67;1869911;76;20121;-72
2024/02/07 11:30:31;;;;;;;;;;;;;;;8.86;100.00;97581.12;1876546;76;20097;-74
2024/02/07 11:33:00;;;;;;;;;;;;;;;8.86;100.00;97590.20;1872485;76;20153;-74
2024/02/07 11:35:30;;;;;;;;;;;;;;;8.89;100.00;97591.23;1843707;76;20107;-74
2024/02/07 11:38:00;;;;;;;;;;;;;;;8.90;100.00;97583.31;1837371;76;20151;-74
2024/02/07 12:41:35;;;;;;;;;;;;;;;8.82;100.00;97572.78;1822805;77;20181;-72
2024/02/07 12:44:01;;;;;;;;;;;;;;;8.80;100.00;97588.14;1821272;76;20374;-74
2024/02/07 12:46:30;;;;;;;;;;;;;;;8.78;100.00;97651.05;1838330;77;20165;-75
2024/02/07 12:48:59;;;;;;;;;;;;;;;8.69;100.00;97657.38;1816436;78;20096;-74
2024/02/07 12:51:24;;;;;;;;;;;;;;;8.52;100.00;97673.55;1811249;77;20164;-73
2024/02/07 12:53:54;;;;;;;;;;;;;;;8.29;100.00;97674.19;1848931;77;20372;-74
2024/02/07 12:56:23;;;;;;;;;;;;;;;7.99;100.00;97698.32;1849174;77;20141;-75
2024/02/07 13:07:22;;;;;;;;;;;;;;;6.92;100.00;97706.13;1808772;77;20214;-73
2024/02/07 13:12:42;;;;;;;;;;;;;;;6.52;100.00;97725.67;1785897;77;20127;-77
2024/02/07 13:15:21;;;;;;;;;;;;;;;6.36;100.00;97724.74;1825023;77;20166;-73
2024/02/07 13:17:52;;;;;;;;;;;;;;;6.23;100.00;97727.42;1783868;78;20186;-71
2024/02/07 13:20:21;;;;;;;;;;;;;;;6.12;100.00;97733.03;1847952;77;20370;-70
2024/02/07 13:26:13;;;;;;;;;;;;;;;5.97;100.00;97733.72;1853661;76;20141;-73
2024/02/07 13:28:39;;;;;;;;;;;;;;;5.88;100.00;97743.41;1865611;75;20454;-72
2024/02/07 13:31:06;;;;;;;;;;;;;;;5.82;100.00;97749.84;1878822;75;20098;-70
2024/02/07 13:33:32;;;;;;;;;;;;;;;5.75;100.00;97755.09;1870450;75;20404;-74
2024/02/07 13:36:01;;;;;;;;;;;;;;;5.69;100.00;97756.36;1854172;76;20144;-73
2024/02/07 13:38:28;;;;;;;;;;;;;;;5.63;100.00;97750.34;1860118;76;20200;-73
2024/02/07 13:40:56;;;;;;;;;;;;;;;5.62;100.00;97751.74;1865628;76;20144;-70
2024/02/07 13:43:24;;;;;;;;;;;;;;;5.60;100.00;97753.61;1840418;77;20454;-74
2024/02/07 13:45:52;;;;;;;;;;;;;;;5.56;100.00;97749.16;1862585;76;20085;-73
2024/02/07 13:48:19;;;;;;;;;;;;;;;5.55;100.00;97749.27;1847803;76;20179;-74
2024/02/07 14:00:50;;;;;;;;;;;;;;;5.50;100.00;97754.77;1854056;76;20088;-71
2024/02/07 14:03:34;;;;;;;;;;;;;;;5.49;100.00;97753.11;1848718;77;20175;-71
2024/02/07 14:06:02;;;;;;;;;;;;;;;5.48;100.00;97760.97;1850576;76;20408;-72
2024/02/07 14:08:29;;;;;;;;;;;;;;;5.42;100.00;97754.48;1887144;75;20093;-71
2024/02/07 14:10:55;;;;;;;;;;;;;;;5.36;100.00;97765.23;1885109;75;20144;-72
2024/02/07 14:13:27;;;;;;;;;;;;;;;5.31;100.00;97760.41;1863234;76;20111;-71
2024/02/07 14:15:58;;;;;;;;;;;;;;;5.27;100.00;97768.47;1827624;77;20370;-75
2024/02/07 14:18:26;;;;;;;;;;;;;;;5.22;100.00;97760.22;1843625;78;20100;-72
2024/02/07 14:20:53;;;;;;;;;;;;;;;5.19;100.00;97760.47;1850065;76;20176;-73
2024/02/07 14:23:20;;;;;;;;;;;;;;;5.15;100.00;97751.30;1838809;76;20089;-71
2024/02/07 14:25:49;;;;;;;;;;;;;;;5.08;100.00;97756.05;1842111;76;20098;-71
2024/02/07 14:28:16;;;;;;;;;;;;;;;5.07;100.00;97763.90;1853628;76;20159;-69
2024/02/07 14:30:46;;;;;;;;;;;;;;;5.03;100.00;97764.58;1853365;76;20510;-71
2024/02/07 14:33:13;;;;;;;;;;;;;;;5.01;100.00;97775.47;1849739;76;20106;-71
2024/02/07 14:35:43;;;;;;;;;;;;;;;5.01;100.00;97769.84;1844349;76;20109;-78
2024/02/07 14:38:20;;;;;;;;;;;;;;;5.02;100.00;97775.36;1838108;77;20108;-73
2024/02/07 14:40:46;;;;;;;;;;;;;;;5.03;100.00;97780.05;1850657;77;20092;-74
2024/02/07 14:43:12;;;;;;;;;;;;;;;5.01;100.00;97776.29;1826652;76;20440;-72
2024/02/07 14:45:40;;;;;;;;;;;;;;;5.00;100.00;97774.64;1829022;77;20112;-71
2024/02/07 14:48:07;;;;;;;;;;;;;;;4.99;100.00;97778.61;1839901;77;20151;-73
2024/02/07 14:50:37;;;;;;;;;;;;;;;4.96;100.00;97777.53;1851357;77;20109;-74
2024/02/07 14:53:10;;;;;;;;;;;;;;;4.89;100.00;97787.44;1844499;76;20094;-74
2024/02/07 14:55:41;;;;;;;;;;;;;;;4.87;100.00;97778.16;1840211;77;20107;-73
2024/02/07 14:58:09;;;;;;;;;;;;;;;4.86;100.00;97779.09;1846132;77;20123;-73
2024/02/07 15:00:37;;;;;;;;;;;;;;;4.83;100.00;97782.70;1835230;77;20167;-71
2024/02/07 15:03:06;;;;;;;;;;;;;;;4.80;100.00;97782.13;1843777;76;20084;-75
2024/02/07 15:05:33;;;;;;;;;;;;;;;4.75;100.00;97788.05;1842129;77;20121;-72
